Time;durP1;ratioP1;P1;durP2;ratioP2;P2;SDS_P1;SDS_P2;PMS_P1;PMS_P2;Temp;Humidity;BMP_temperature;BMP_pressure;BME280_temperature;BME280_humidity;BME280_pressure;Samples;Min_cycle;Max_cycle;Signal;HPM_P1;HPM_P2
2022/07/02 00:02:12;;;;;;;2.75;1.80;;;13.40;99.90;;;;;;4999804;28;20566;-69
2022/07/02 00:04:51;;;;;;;4.05;2.03;;;13.40;99.90;;;;;;5016884;28;20382;-69
2022/07/02 00:07:16;;;;;;;5.38;2.30;;;13.40;99.90;;;;;;5016630;28;20053;-69
2022/07/02 00:09:42;;;;;;;10.82;2.17;;;13.40;99.90;;;;;;5000310;28;20129;-69
2022/07/02 00:12:10;;;;;;;4.80;2.40;;;13.30;99.90;;;;;;5016335;28;20446;-69
2022/07/02 00:14:36;;;;;;;5.07;2.10;;;13.30;99.90;;;;;;4999429;28;20049;-69
2022/07/02 00:17:02;;;;;;;4.70;2.10;;;13.30;99.90;;;;;;4997852;28;20042;-69
2022/07/02 00:19:29;;;;;;;6.28;2.38;;;13.20;99.90;;;;;;5016138;28;20096;-69
2022/07/02 00:21:57;;;;;;;4.07;1.77;;;13.20;99.90;;;;;;4998977;28;20058;-69
2022/07/02 00:24:23;;;;;;;4.93;2.42;;;13.20;99.90;;;;;;5016407;28;20060;-69
2022/07/02 00:26:59;;;;;;;2.90;2.03;;;13.20;99.90;;;;;;4999228;28;20453;-68
2022/07/02 00:29:34;;;;;;;4.47;2.38;;;13.20;99.90;;;;;;5016408;28;20042;-69
2022/07/02 00:32:00;;;;;;;4.75;2.47;;;13.10;99.90;;;;;;5016416;28;20136;-69
2022/07/02 00:34:26;;;;;;;5.60;2.90;;;13.10;99.90;;;;;;5016496;28;20073;-69
2022/07/02 00:36:52;;;;;;;4.05;2.33;;;13.10;99.90;;;;;;4998992;28;20041;-69
2022/07/02 00:39:17;;;;;;;6.10;2.03;;;13.10;99.90;;;;;;4998733;28;20057;-69
2022/07/02 00:41:45;;;;;;;4.68;2.25;;;13.10;99.90;;;;;;4998584;28;20451;-68
2022/07/02 00:44:10;;;;;;;3.28;2.13;;;13.00;99.90;;;;;;5016088;28;20038;-69
2022/07/02 00:46:37;;;;;;;3.95;2.47;;;13.10;99.90;;;;;;5016482;28;20406;-68
2022/07/02 00:49:03;;;;;;;4.97;2.60;;;13.10;99.90;;;;;;4998948;28;20100;-68
2022/07/02 00:51:29;;;;;;;5.78;2.05;;;13.00;99.90;;;;;;4982991;28;20478;-69
2022/07/02 00:53:55;;;;;;;3.78;2.20;;;13.00;99.90;;;;;;5016138;28;20422;-69
2022/07/02 00:56:20;;;;;;;5.32;2.78;;;12.90;99.90;;;;;;4998545;28;20513;-69
2022/07/02 00:58:47;;;;;;;6.53;2.35;;;13.00;99.90;;;;;;4998684;28;20486;-69
2022/07/02 01:01:13;;;;;;;4.88;2.40;;;12.80;99.90;;;;;;4998624;28;20088;-68
2022/07/02 01:03:42;;;;;;;3.65;2.17;;;12.90;99.90;;;;;;4998486;28;20049;-69
2022/07/02 01:06:07;;;;;;;5.65;2.47;;;12.90;99.90;;;;;;4998062;28;20073;-69
2022/07/02 01:11:18;;;;;;;5.43;2.55;;;12.80;99.90;;;;;;4997410;28;20050;-68
2022/07/02 01:13:44;;;;;;;6.43;2.30;;;12.80;99.90;;;;;;4997618;28;20474;-68
2022/07/02 01:16:09;;;;;;;5.85;2.20;;;12.70;99.90;;;;;;5015690;28;20450;-69
2022/07/02 01:18:38;;;;;;;5.85;2.50;;;12.80;99.90;;;;;;5015329;28;20089;-69
2022/07/02 01:21:04;;;;;;;6.10;2.67;;;12.70;99.90;;;;;;4998455;28;20046;-68
2022/07/02 01:23:29;;;;;;;5.80;2.60;;;12.70;99.90;;;;;;4998321;28;20478;-68
2022/07/02 01:25:55;;;;;;;3.30;2.15;;;12.70;99.90;;;;;;4998225;28;20045;-69
2022/07/02 01:28:22;;;;;;;5.10;2.70;;;12.70;99.90;;;;;;4997843;28;20046;-69
2022/07/02 01:30:49;;;;;;;5.28;2.47;;;12.60;99.90;;;;;;5015270;28;20046;-69
2022/07/02 01:33:15;;;;;;;5.25;2.78;;;12.60;99.90;;;;;;5015668;28;20045;-69
2022/07/02 01:35:41;;;;;;;6.22;2.75;;;12.60;99.90;;;;;;5015358;28;20052;-69
2022/07/02 01:38:06;;;;;;;7.10;3.20;;;12.60;99.90;;;;;;5015113;28;20046;-69
2022/07/02 01:40:32;;;;;;;5.20;2.45;;;12.60;99.90;;;;;;4997364;28;20096;-69
2022/07/02 01:42:57;;;;;;;4.53;2.58;;;12.50;99.90;;;;;;4998423;28;20414;-68
2022/07/02 01:45:23;;;;;;;5.70;3.10;;;12.60;99.90;;;;;;4997632;28;20366;-69
2022/07/02 01:47:49;;;;;;;3.88;2.78;;;12.50;99.90;;;;;;4998138;28;20080;-69
2022/07/02 01:50:14;;;;;;;5.13;2.50;;;12.50;99.90;;;;;;4998172;28;20366;-68
2022/07/02 01:52:40;;;;;;;4.78;2.53;;;12.40;99.90;;;;;;5015202;28;20120;-68
2022/07/02 01:55:06;;;;;;;4.60;2.72;;;12.40;99.90;;;;;;5014872;28;20049;-69
2022/07/02 01:57:35;;;;;;;6.32;2.85;;;12.30;99.90;;;;;;4997756;28;20046;-68
2022/07/02 02:00:07;;;;;;;7.47;2.72;;;12.30;99.90;;;;;;4997658;28;20347;-69
2022/07/02 02:02:33;;;;;;;5.18;2.58;;;12.30;99.90;;;;;;4997846;28;20050;-69
2022/07/02 02:04:59;;;;;;;3.85;2.45;;;12.30;99.90;;;;;;5014262;28;20050;-68
2022/07/02 02:07:25;;;;;;;3.67;2.45;;;12.20;99.90;;;;;;5015048;28;20054;-69
2022/07/02 02:09:50;;;;;;;5.63;2.58;;;12.20;99.90;;;;;;5018237;28;20506;-68
2022/07/02 02:12:16;;;;;;;6.72;2.60;;;12.20;99.90;;;;;;5018901;28;20097;-69
2022/07/02 02:14:42;;;;;;;6.00;2.65;;;12.20;99.90;;;;;;5001450;28;20057;-69
2022/07/02 02:17:07;;;;;;;5.68;2.70;;;12.20;99.90;;;;;;5001470;28;20042;-68
2022/07/02 02:19:33;;;;;;;5.20;2.83;;;12.20;99.90;;;;;;5001285;28;20112;-69
2022/07/02 02:21:58;;;;;;;9.02;3.08;;;12.20;99.90;;;;;;5002116;28;20038;-69
2022/07/02 02:24:24;;;;;;;10.20;2.83;;;12.20;99.90;;;;;;5001483;28;20459;-69
2022/07/02 02:26:50;;;;;;;7.90;2.80;;;12.20;99.90;;;;;;5001673;28;20353;-69
2022/07/02 02:29:16;;;;;;;5.60;2.55;;;12.10;99.90;;;;;;5001537;28;20045;-69
2022/07/02 02:31:41;;;;;;;8.05;2.83;;;12.20;99.90;;;;;;5018837;28;20045;-69
2022/07/02 02:34:07;;;;;;;6.07;2.65;;;12.20;99.90;;;;;;5018686;28;20038;-69
2022/07/02 02:36:33;;;;;;;6.35;2.90;;;12.20;99.90;;;;;;5018544;28;20038;-69
2022/07/02 02:38:59;;;;;;;4.88;2.90;;;12.20;99.90;;;;;;5018229;28;20050;-69
2022/07/02 02:41:25;;;;;;;4.93;2.83;;;12.20;99.90;;;;;;5016795;28;20080;-70
2022/07/02 02:43:50;;;;;;;10.57;2.75;;;12.20;99.90;;;;;;5018515;28;20458;-69
2022/07/02 02:46:16;;;;;;;7.40;3.00;;;12.10;99.90;;;;;;5018162;28;20058;-69
2022/07/02 02:48:42;;;;;;;6.20;2.65;;;12.20;99.90;;;;;;5000703;28;20046;-68
2022/07/02 02:51:09;;;;;;;4.88;2.40;;;12.20;99.90;;;;;;5018341;28;20124;-69
2022/07/02 02:53:35;;;;;;;6.57;3.30;;;12.20;99.90;;;;;;5001083;28;20447;-68
2022/07/02 02:56:02;;;;;;;5.20;2.88;;;12.20;99.90;;;;;;5017945;28;20042;-69
2022/07/02 02:58:28;;;;;;;7.65;3.33;;;12.20;99.90;;;;;;5000743;28;20057;-69
2022/07/02 03:00:54;;;;;;;6.43;3.40;;;12.20;99.90;;;;;;5017976;28;20061;-69
2022/07/02 03:03:20;;;;;;;5.95;3.25;;;12.20;99.90;;;;;;5000714;28;20046;-69
2022/07/02 03:05:46;;;;;;;4.65;2.45;;;12.20;99.90;;;;;;5000697;28;20111;-69
2022/07/02 03:08:12;;;;;;;6.07;3.25;;;12.20;99.90;;;;;;5000731;28;20406;-69
2022/07/02 03:10:37;;;;;;;8.15;2.95;;;12.10;99.90;;;;;;4984320;28;20065;-69
2022/07/02 03:13:03;;;;;;;6.05;3.05;;;12.10;99.90;;;;;;5017359;28;20038;-68
2022/07/02 03:15:28;;;;;;;7.90;3.13;;;12.10;99.90;;;;;;5017942;28;20045;-68
2022/07/02 03:17:54;;;;;;;4.93;2.97;;;12.10;99.90;;;;;;4984372;28;20422;-68
2022/07/02 03:20:20;;;;;;;4.47;3.03;;;12.10;99.90;;;;;;4999915;28;20057;-68
2022/07/02 03:22:45;;;;;;;7.10;3.47;;;12.10;99.90;;;;;;5017810;28;20050;-68
2022/07/02 03:25:14;;;;;;;5.13;3.40;;;12.00;99.90;;;;;;5000198;28;20056;-68
2022/07/02 03:27:39;;;;;;;5.40;3.40;;;12.10;99.90;;;;;;4999651;28;20041;-68
2022/07/02 03:30:06;;;;;;;5.45;3.47;;;12.10;99.90;;;;;;5000873;28;20083;-68
2022/07/02 03:32:32;;;;;;;6.82;3.42;;;12.00;99.90;;;;;;5017694;28;20050;-68
2022/07/02 03:34:57;;;;;;;6.85;2.95;;;12.00;99.90;;;;;;5017372;28;20504;-68
2022/07/02 03:37:26;;;;;;;7.60;3.63;;;12.10;99.90;;;;;;5000197;28;20050;-68
2022/07/02 03:39:52;;;;;;;7.68;3.40;;;12.10;99.90;;;;;;5015875;28;20049;-68
2022/07/02 03:42:17;;;;;;;5.45;3.05;;;12.10;99.90;;;;;;4999366;28;20053;-68
2022/07/02 03:44:43;;;;;;;7.70;2.85;;;12.10;99.90;;;;;;4966765;28;20398;-68
2022/07/02 03:47:08;;;;;;;5.32;3.13;;;12.10;99.90;;;;;;4983694;28;20192;-68
2022/07/02 03:49:34;;;;;;;7.65;4.38;;;12.10;99.90;;;;;;5000172;28;20053;-68
2022/07/02 03:52:00;;;;;;;7.35;2.90;;;12.10;99.90;;;;;;4999592;28;20525;-68
2022/07/02 03:54:25;;;;;;;4.78;3.33;;;12.10;99.90;;;;;;4999746;28;20080;-68
2022/07/02 03:56:51;;;;;;;6.57;3.30;;;12.10;99.90;;;;;;4999915;28;20125;-68
2022/07/02 03:59:16;;;;;;;6.30;3.33;;;12.10;99.90;;;;;;5000010;28;20042;-68
2022/07/02 04:01:42;;;;;;;4.97;3.05;;;12.20;99.90;;;;;;4999918;28;20119;-68
2022/07/02 04:04:08;;;;;;;7.47;3.55;;;12.20;99.90;;;;;;4999388;28;20046;-68
2022/07/02 04:06:33;;;;;;;8.55;4.07;;;12.30;99.90;;;;;;4983761;28;20085;-68
2022/07/02 04:08:59;;;;;;;5.88;3.78;;;12.20;99.90;;;;;;5016199;28;20042;-68
2022/07/02 04:11:25;;;;;;;6.45;3.33;;;12.30;99.90;;;;;;4998894;28;20073;-68
2022/07/02 04:13:50;;;;;;;6.63;3.95;;;12.30;99.90;;;;;;4983948;28;20045;-68
2022/07/02 04:16:16;;;;;;;5.90;3.13;;;12.30;99.90;;;;;;4999322;28;20374;-68
2022/07/02 04:18:42;;;;;;;4.97;3.33;;;12.30;99.90;;;;;;4999710;28;20053;-68
2022/07/02 04:21:07;;;;;;;4.97;3.72;;;12.40;99.90;;;;;;4999658;28;20435;-68
2022/07/02 04:23:33;;;;;;;10.10;3.63;;;12.40;99.90;;;;;;4999481;28;20052;-68
2022/07/02 04:25:58;;;;;;;6.78;3.85;;;12.50;99.90;;;;;;5016284;28;20125;-68
2022/07/02 04:28:24;;;;;;;6.45;3.92;;;12.50;99.90;;;;;;5016427;28;20122;-68
2022/07/02 04:30:50;;;;;;;5.78;3.40;;;12.60;99.90;;;;;;4999489;28;20065;-68
2022/07/02 04:33:16;;;;;;;5.63;3.25;;;12.70;99.90;;;;;;5015592;28;20046;-68
2022/07/02 04:35:41;;;;;;;6.78;3.22;;;12.70;99.90;;;;;;4982962;28;20370;-68
2022/07/02 04:38:07;;;;;;;5.28;3.20;;;12.80;99.90;;;;;;5016287;28;20377;-68
2022/07/02 04:40:32;;;;;;;9.82;4.05;;;12.80;99.90;;;;;;5015546;28;20045;-68
2022/07/02 04:42:58;;;;;;;7.13;4.15;;;12.90;99.90;;;;;;4998745;28;20440;-68
2022/07/02 04:45:24;;;;;;;6.90;3.95;;;12.90;99.90;;;;;;5016555;28;20121;-68
2022/07/02 04:47:49;;;;;;;6.32;4.13;;;12.90;99.90;;;;;;5016127;28;20038;-68
2022/07/02 04:50:15;;;;;;;6.40;4.03;;;13.10;99.90;;;;;;4982924;28;20100;-68
2022/07/02 04:52:48;;;;;;;6.40;3.80;;;13.10;99.90;;;;;;5133451;27;20670;-69
2022/07/02 04:55:14;;;;;;;6.88;3.88;;;13.20;99.90;;;;;;5096803;28;20048;-69
2022/07/02 04:57:40;;;;;;;7.28;4.15;;;13.30;99.90;;;;;;5092252;28;20127;-69
2022/07/02 05:00:06;;;;;;;10.77;3.95;;;13.40;99.90;;;;;;5074897;28;20051;-69
2022/07/02 05:02:33;;;;;;;6.10;3.85;;;13.50;99.90;;;;;;5074646;28;20097;-69
2022/07/02 05:04:58;;;;;;;8.65;3.80;;;13.60;99.90;;;;;;5092248;28;20045;-69
2022/07/02 05:07:25;;;;;;;7.65;4.28;;;13.70;99.90;;;;;;5074526;28;20113;-69
2022/07/02 05:09:50;;;;;;;11.73;5.07;;;13.70;99.90;;;;;;5088018;28;20105;-69
2022/07/02 05:12:16;;;;;;;7.15;3.97;;;13.80;99.90;;;;;;5094588;28;20052;-69
2022/07/02 05:14:42;;;;;;;6.32;3.67;;;13.90;99.90;;;;;;5094177;28;20059;-69
2022/07/02 05:17:07;;;;;;;10.93;4.43;;;14.20;99.90;;;;;;5112134;28;20035;-69
2022/07/02 05:19:33;;;;;;;10.13;5.63;;;15.40;99.90;;;;;;5077487;28;20130;-69
2022/07/02 05:21:59;;;;;;;8.13;4.20;;;17.20;99.90;;;;;;5112434;28;20050;-70
2022/07/02 05:24:24;;;;;;;5.85;3.15;;;18.60;99.90;;;;;;5095420;28;20119;-70
2022/07/02 05:26:50;;;;;;;8.52;3.50;;;20.40;99.90;;;;;;5093901;28;20051;-69
2022/07/02 05:29:15;;;;;;;11.90;3.55;;;21.50;99.90;;;;;;5094241;28;20036;-69
2022/07/02 05:31:41;;;;;;;6.13;3.33;;;22.60;99.90;;;;;;5112105;28;20047;-69
2022/07/02 05:34:06;;;;;;;4.72;2.80;;;23.30;99.90;;;;;;5094403;28;20106;-69
2022/07/02 05:36:32;;;;;;;7.30;2.95;;;24.00;99.90;;;;;;5094055;28;20127;-69
2022/07/02 05:38:58;;;;;;;5.70;2.40;;;24.50;99.90;;;;;;5093022;28;20052;-70
2022/07/02 05:41:23;;;;;;;8.50;2.90;;;24.90;99.90;;;;;;5078287;28;20048;-70
2022/07/02 05:43:49;;;;;;;6.20;2.60;;;25.30;99.20;;;;;;5073642;28;20458;-69
2022/07/02 05:46:14;;;;;;;4.80;2.33;;;25.60;98.90;;;;;;5074102;28;20399;-69
2022/07/02 05:48:41;;;;;;;5.38;2.53;;;26.00;98.10;;;;;;5073341;28;20090;-69
2022/07/02 05:51:07;;;;;;;3.63;1.80;;;26.40;97.80;;;;;;5091418;28;20360;-70
2022/07/02 05:53:32;;;;;;;7.28;2.58;;;26.50;97.80;;;;;;5073311;28;20052;-70
2022/07/02 05:55:58;;;;;;;6.75;2.33;;;27.20;96.30;;;;;;5079048;28;20050;-70
2022/07/02 05:58:23;;;;;;;4.78;1.85;;;27.50;95.50;;;;;;5093577;28;20059;-70
2022/07/02 06:00:49;;;;;;;3.85;1.65;;;27.60;96.20;;;;;;5074223;28;20456;-70
2022/07/02 06:03:15;;;;;;;3.20;1.77;;;27.70;95.50;;;;;;5083010;28;20098;-70
2022/07/02 06:08:24;;;;;;;4.03;1.58;;;28.40;93.50;;;;;;5060284;28;20052;-70
2022/07/02 06:10:51;;;;;;;4.30;1.73;;;28.40;94.30;;;;;;5059626;28;20041;-70
2022/07/02 06:13:18;;;;;;;4.07;1.50;;;28.70;93.40;;;;;;5060217;28;20060;-69
2022/07/02 06:15:44;;;;;;;5.47;1.90;;;29.20;92.50;;;;;;5086862;28;20951;-70
2022/07/02 06:18:09;;;;;;;3.13;1.25;;;29.10;92.30;;;;;;5088965;28;20044;-69
2022/07/02 06:20:35;;;;;;;5.05;1.63;;;29.10;92.20;;;;;;5107997;28;20036;-70
2022/07/02 06:23:01;;;;;;;7.45;1.70;;;29.20;92.40;;;;;;5096159;28;20036;-68
2022/07/02 06:25:27;;;;;;;4.43;1.80;;;29.20;91.40;;;;;;5113430;28;20046;-70
2022/07/02 06:27:52;;;;;;;3.00;1.42;;;29.10;91.30;;;;;;5099681;28;20364;-70
2022/07/02 06:30:18;;;;;;;4.30;1.55;;;29.70;91.90;;;;;;5113941;28;20051;-70
2022/07/02 06:32:44;;;;;;;4.50;1.30;;;29.60;91.70;;;;;;5068856;28;20044;-67
2022/07/02 06:35:09;;;;;;;5.00;1.70;;;29.70;91.30;;;;;;5095364;28;20038;-70
2022/07/02 06:37:35;;;;;;;3.60;1.25;;;30.00;90.90;;;;;;5072056;28;20048;-68
2022/07/02 06:40:00;;;;;;;3.13;1.27;;;30.20;90.20;;;;;;5086002;28;20045;-68
2022/07/02 06:42:29;;;;;;;4.00;1.10;;;30.70;90.70;;;;;;5078879;28;20508;-68
2022/07/02 06:44:57;;;;;;;4.90;1.45;;;30.20;90.30;;;;;;5079538;28;20062;-68
2022/07/02 06:47:23;;;;;;;8.10;1.45;;;30.90;90.20;;;;;;5079241;28;20047;-68
2022/07/02 06:49:49;;;;;;;3.38;1.05;;;31.00;88.20;;;;;;5078532;28;20051;-68
2022/07/02 06:52:16;;;;;;;2.90;0.98;;;30.20;87.80;;;;;;5096371;28;20060;-67
2022/07/02 06:54:43;;;;;;;7.50;1.95;;;30.20;88.30;;;;;;5096844;28;20087;-67
2022/07/02 06:57:09;;;;;;;3.78;1.10;;;30.20;88.80;;;;;;5075526;28;20033;-67
2022/07/02 06:59:36;;;;;;;2.67;1.02;;;30.50;88.10;;;;;;5076440;28;20064;-66
2022/07/02 07:02:02;;;;;;;4.50;0.93;;;30.60;86.60;;;;;;5058595;28;20040;-67
2022/07/02 07:04:28;;;;;;;3.53;1.00;;;30.40;87.00;;;;;;5058721;28;20074;-67
2022/07/02 07:06:55;;;;;;;2.88;1.08;;;30.50;87.00;;;;;;5076775;28;20053;-67
2022/07/02 07:09:21;;;;;;;2.22;1.00;;;30.40;85.70;;;;;;5058736;28;20404;-67
2022/07/02 07:11:46;;;;;;;3.20;1.08;;;30.60;86.60;;;;;;5058663;28;20044;-67
2022/07/02 07:14:12;;;;;;;5.00;1.10;;;30.90;84.90;;;;;;5074643;28;20040;-68
2022/07/02 07:16:38;;;;;;;1.98;0.77;;;30.50;84.70;;;;;;5064748;28;20080;-67
2022/07/02 07:19:07;;;;;;;2.85;0.93;;;31.10;83.80;;;;;;5058446;28;20052;-67
2022/07/02 07:21:34;;;;;;;4.72;1.10;;;31.00;84.10;;;;;;5058146;28;20127;-67
2022/07/02 07:24:00;;;;;;;3.17;0.77;;;31.10;85.00;;;;;;5076233;28;20416;-66
2022/07/02 07:26:25;;;;;;;5.50;0.50;;;31.40;84.60;;;;;;5058410;28;20051;-67
2022/07/02 07:28:51;;;;;;;3.75;1.15;;;31.00;83.10;;;;;;5076291;28;20116;-66
2022/07/02 07:31:20;;;;;;;1.83;0.70;;;31.00;81.50;;;;;;5075520;28;20040;-66
2022/07/02 07:33:52;;;;;;;3.03;0.90;;;30.70;82.80;;;;;;5075779;28;20059;-67
2022/07/02 07:36:18;;;;;;;;;;;30.60;82.50;;;;;;5075483;28;20052;-66
2022/07/02 07:38:44;;;;;;;3.40;0.80;;;30.40;82.90;;;;;;5058317;28;19920;-67
2022/07/02 07:41:10;;;;;;;3.20;0.85;;;30.40;84.40;;;;;;5057583;28;20068;-66
2022/07/02 07:43:35;;;;;;;3.63;1.02;;;30.50;82.80;;;;;;5058385;28;20071;-67
2022/07/02 07:46:01;;;;;;;1.75;0.73;;;30.90;83.00;;;;;;5075730;28;20063;-68
2022/07/02 07:48:27;;;;;;;3.35;0.98;;;31.30;81.80;;;;;;5057967;28;20048;-67
2022/07/02 07:50:52;;;;;;;3.67;0.60;;;31.40;81.60;;;;;;5058552;28;20059;-67
2022/07/02 07:53:18;;;;;;;2.95;0.80;;;31.70;83.10;;;;;;5075315;28;20052;-68
2022/07/02 07:55:45;;;;;;;2.50;0.70;;;31.60;79.30;;;;;;5086818;28;20035;-68
2022/07/02 07:58:11;;;;;;;2.28;0.70;;;31.00;80.90;;;;;;5078082;28;20356;-69
2022/07/02 08:00:37;;;;;;;2.10;0.90;;;30.50;81.00;;;;;;5077523;28;20074;-70
2022/07/02 08:03:02;;;;;;;1.17;0.60;;;30.90;82.20;;;;;;5077307;28;20044;-69
2022/07/02 08:05:28;;;;;;;1.65;0.60;;;30.90;80.60;;;;;;5061103;28;20433;-68
2022/07/02 08:07:53;;;;;;;4.13;1.10;;;31.00;80.70;;;;;;5060758;28;20452;-68
2022/07/02 08:10:19;;;;;;;3.95;0.73;;;30.70;80.70;;;;;;5074054;28;20050;-68
2022/07/02 08:12:46;;;;;;;1.55;0.70;;;30.80;80.60;;;;;;5068424;28;20040;-68
2022/07/02 08:15:12;;;;;;;3.10;0.70;;;30.70;81.10;;;;;;5057639;28;20528;-69
2022/07/02 08:17:38;;;;;;;4.47;0.70;;;30.70;80.40;;;;;;5057645;28;20088;-68
2022/07/02 08:20:05;;;;;;;1.80;0.73;;;30.60;80.40;;;;;;5057868;28;20091;-68
2022/07/02 08:22:35;;;;;;;2.20;0.80;;;30.50;81.70;;;;;;5075090;28;20051;-68
2022/07/02 08:25:02;;;;;;;1.83;0.50;;;29.90;80.50;;;;;;5075392;28;20357;-68
2022/07/02 08:27:28;;;;;;;2.75;1.05;;;30.40;82.30;;;;;;5088387;28;20055;-68
2022/07/02 08:29:53;;;;;;;2.33;0.60;;;30.40;81.80;;;;;;5076768;28;20040;-70
2022/07/02 08:32:19;;;;;;;3.13;0.70;;;30.60;79.70;;;;;;5076927;28;20117;-69
2022/07/02 08:34:45;;;;;;;1.70;0.82;;;30.50;80.80;;;;;;5077173;28;20115;-69
2022/07/02 08:37:11;;;;;;;3.22;0.95;;;30.70;79.50;;;;;;5077487;28;20489;-69
2022/07/02 08:39:36;;;;;;;1.15;0.43;;;30.40;79.40;;;;;;5072797;28;20048;-69
2022/07/02 08:42:03;;;;;;;1.35;0.50;;;30.40;80.30;;;;;;5064784;28;20058;-69
2022/07/02 08:44:32;;;;;;;1.75;0.55;;;30.00;78.80;;;;;;5100459;28;20036;-70
2022/07/02 08:46:58;;;;;;;1.35;0.57;;;30.20;79.80;;;;;;5082097;28;20523;-70
2022/07/02 08:49:26;;;;;;;1.45;0.45;;;29.80;78.30;;;;;;5061553;28;20055;-70
2022/07/02 08:54:23;;;;;;;3.58;0.75;;;29.80;78.80;;;;;;5074735;28;20048;-69
2022/07/02 08:56:51;;;;;;;0.65;0.40;;;29.60;78.90;;;;;;5068693;28;20044;-70
2022/07/02 08:59:17;;;;;;;1.25;0.30;;;29.80;79.10;;;;;;5077234;28;20044;-70
2022/07/02 09:01:46;;;;;;;0.43;0.30;;;29.70;75.40;;;;;;5076581;28;20059;-70
2022/07/02 09:04:17;;;;;;;0.68;0.40;;;29.60;78.00;;;;;;5077467;28;20079;-70
2022/07/02 09:06:46;;;;;;;1.70;0.47;;;29.10;77.10;;;;;;5094785;28;20468;-69
2022/07/02 09:09:11;;;;;;;1.10;0.40;;;29.30;77.80;;;;;;5076739;28;20044;-70
2022/07/02 09:11:37;;;;;;;2.70;0.40;;;29.10;75.80;;;;;;5071026;28;20426;-70
2022/07/02 09:14:04;;;;;;;2.38;0.40;;;29.00;76.80;;;;;;5056770;28;20063;-70
2022/07/02 09:16:30;;;;;;;1.13;0.30;;;29.10;77.80;;;;;;5074607;28;20385;-70
2022/07/02 09:18:56;;;;;;;1.63;0.47;;;29.10;78.00;;;;;;5057202;28;20168;-69
2022/07/02 09:21:22;;;;;;;4.40;0.98;;;29.00;77.70;;;;;;5056983;28;20075;-69
2022/07/02 09:23:50;;;;;;;2.25;0.40;;;29.00;78.30;;;;;;5074472;28;20357;-69
2022/07/02 09:26:20;;;;;;;1.10;0.32;;;28.90;78.20;;;;;;5072550;28;20541;-70
2022/07/02 09:28:59;;;;;;;1.98;0.50;;;28.50;78.90;;;;;;5061338;28;20053;-69
2022/07/02 09:31:29;;;;;;;1.00;0.40;;;28.20;78.60;;;;;;5073229;28;20047;-69
2022/07/02 09:33:56;;;;;;;1.88;0.85;;;28.00;79.90;;;;;;5056532;28;20049;-69
2022/07/02 09:36:21;;;;;;;1.13;0.40;;;27.80;79.50;;;;;;5056095;28;20044;-70
2022/07/02 09:38:49;;;;;;;0.63;0.50;;;27.70;79.60;;;;;;5095778;28;20039;-69
2022/07/02 09:41:18;;;;;;;1.30;0.30;;;27.60;79.50;;;;;;5097059;28;20044;-69
2022/07/02 09:43:45;;;;;;;3.80;0.75;;;27.30;78.70;;;;;;5098064;28;20518;-69
2022/07/02 09:46:18;;;;;;;8.07;0.77;;;27.10;78.40;;;;;;5098389;28;20101;-68
2022/07/02 09:48:44;;;;;;;1.17;0.35;;;27.00;79.80;;;;;;5098287;28;20105;-68
2022/07/02 09:51:09;;;;;;;0.88;0.40;;;27.00;77.90;;;;;;5079300;28;20112;-68
2022/07/02 09:53:45;;;;;;;1.42;0.50;;;26.90;77.80;;;;;;5079959;28;20048;-68
2022/07/02 09:56:11;;;;;;;1.75;0.73;;;26.90;78.50;;;;;;5096863;28;20044;-68
2022/07/02 09:58:37;;;;;;;1.25;0.30;;;26.90;78.20;;;;;;5097475;28;20089;-68
2022/07/02 10:01:03;;;;;;;3.97;0.80;;;26.60;77.10;;;;;;5080162;28;20058;-68
2022/07/02 10:03:29;;;;;;;0.70;0.40;;;26.50;77.40;;;;;;5097808;28;20052;-70
2022/07/02 10:05:56;;;;;;;2.10;0.60;;;26.70;78.70;;;;;;5079626;28;20054;-70
2022/07/02 10:08:22;;;;;;;2.38;0.50;;;26.40;79.00;;;;;;5063708;28;20108;-70
2022/07/02 10:10:49;;;;;;;1.10;0.45;;;26.50;79.80;;;;;;5068577;28;20052;-70
2022/07/02 10:13:16;;;;;;;0.47;0.28;;;26.60;78.50;;;;;;5077504;28;20044;-69
2022/07/02 10:15:57;;;;;;;1.45;0.65;;;26.70;78.80;;;;;;5060184;28;20048;-69
2022/07/02 10:18:24;;;;;;;1.13;0.40;;;26.60;79.60;;;;;;5059799;28;20052;-70
2022/07/02 10:20:52;;;;;;;6.80;1.20;;;26.80;80.00;;;;;;5059630;28;20056;-69
2022/07/02 10:23:19;;;;;;;2.65;0.70;;;26.70;79.30;;;;;;5077216;28;20040;-69
2022/07/02 10:25:48;;;;;;;3.42;0.70;;;26.80;78.80;;;;;;5059421;28;20132;-70
2022/07/02 10:28:14;;;;;;;5.57;0.52;;;26.70;79.90;;;;;;5059783;28;20052;-69
2022/07/02 10:30:40;;;;;;;0.57;0.38;;;27.00;80.20;;;;;;5058643;28;20063;-70
2022/07/02 10:33:09;;;;;;;2.30;0.50;;;26.90;79.50;;;;;;5076185;28;20091;-69
2022/07/02 10:35:35;;;;;;;7.80;0.60;;;26.90;78.20;;;;;;5061291;28;20388;-69
2022/07/02 10:38:01;;;;;;;0.88;0.47;;;26.60;79.90;;;;;;5110842;28;20039;-71
2022/07/02 10:40:27;;;;;;;1.75;0.47;;;26.70;80.50;;;;;;5097422;28;20047;-70
2022/07/02 10:42:57;;;;;;;1.65;0.50;;;26.60;78.80;;;;;;5113665;28;20469;-70
2022/07/02 10:45:24;;;;;;;1.95;0.47;;;26.80;80.60;;;;;;5094566;28;20043;-69
2022/07/02 10:48:05;;;;;;;1.38;0.47;;;26.90;80.70;;;;;;5084873;28;20468;-69
2022/07/02 10:50:40;;;;;;;2.28;0.52;;;27.00;80.30;;;;;;5083810;28;20044;-70
2022/07/02 10:53:17;;;;;;;1.33;0.45;;;26.70;77.40;;;;;;5087274;28;20169;-69
2022/07/02 10:55:58;;;;;;;0.60;0.47;;;26.60;78.80;;;;;;5065883;28;20117;-70
2022/07/02 10:58:29;;;;;;;0.35;0.22;;;26.60;79.30;;;;;;5091810;28;20067;-69
2022/07/02 11:00:55;;;;;;;0.55;0.30;;;26.60;78.10;;;;;;5089992;28;20379;-70
2022/07/02 11:03:26;;;;;;;1.92;0.57;;;26.60;79.50;;;;;;5063063;28;20095;-69
2022/07/02 11:05:52;;;;;;;0.73;0.30;;;26.30;80.20;;;;;;5059059;28;20055;-69
2022/07/02 11:08:45;;;;;;;1.40;0.40;;;26.30;79.10;;;;;;5076342;28;20106;-69
2022/07/02 11:11:29;;;;;;;0.40;0.40;;;26.10;78.80;;;;;;5075253;28;20464;-69
2022/07/02 11:14:16;;;;;;;1.48;0.35;;;25.80;78.70;;;;;;5058721;28;20373;-68
2022/07/02 11:16:46;;;;;;;1.33;0.60;;;25.70;79.40;;;;;;5058573;28;20055;-69
2022/07/02 11:19:12;;;;;;;1.00;0.40;;;25.80;79.80;;;;;;5059003;28;20353;-68
2022/07/02 11:21:39;;;;;;;0.80;0.32;;;26.10;79.50;;;;;;5059016;28;20126;-68
2022/07/02 11:24:05;;;;;;;2.22;0.35;;;26.30;79.30;;;;;;5058227;28;20049;-68
2022/07/02 11:26:31;;;;;;;2.17;0.70;;;26.30;79.00;;;;;;5059588;28;20048;-69
2022/07/02 11:29:04;;;;;;;6.78;0.88;;;26.50;80.00;;;;;;5075901;28;20033;-69
2022/07/02 11:31:34;;;;;;;1.42;0.40;;;26.70;80.00;;;;;;5075793;28;20116;-69
2022/07/02 11:34:00;;;;;;;2.22;0.30;;;26.60;78.60;;;;;;5058185;28;20040;-68
2022/07/02 11:36:26;;;;;;;0.75;0.30;;;26.50;78.80;;;;;;5076165;28;20433;-69
2022/07/02 11:38:53;;;;;;;1.05;0.50;;;26.60;79.30;;;;;;5058148;28;20059;-69
2022/07/02 11:41:32;;;;;;;2.53;0.57;;;26.80;79.10;;;;;;5065536;28;20048;-69
2022/07/02 11:43:59;;;;;;;2.25;0.70;;;27.00;78.40;;;;;;5076007;28;20052;-69
2022/07/02 11:46:27;;;;;;;1.55;0.32;;;27.00;79.60;;;;;;5058432;28;20093;-69
2022/07/02 11:48:54;;;;;;;0.88;0.40;;;26.80;77.30;;;;;;5057974;28;20052;-68
2022/07/02 11:51:20;;;;;;;1.77;0.38;;;26.50;78.80;;;;;;5057392;28;20499;-69
2022/07/02 11:54:02;;;;;;;3.05;0.43;;;26.30;78.10;;;;;;5057960;28;20058;-69
2022/07/02 11:56:30;;;;;;;1.00;0.30;;;26.50;77.50;;;;;;5070640;28;20055;-68
2022/07/02 11:58:56;;;;;;;4.60;0.55;;;26.60;80.30;;;;;;5096218;28;20352;-68
2022/07/02 12:01:30;;;;;;;0.40;0.30;;;26.70;79.50;;;;;;5089173;28;20043;-68
2022/07/02 12:03:58;;;;;;;1.27;0.40;;;26.70;79.50;;;;;;5083982;28;20337;-69
2022/07/02 12:06:25;;;;;;;0.38;0.25;;;26.80;79.70;;;;;;5107285;28;20417;-68
2022/07/02 12:08:54;;;;;;;0.63;0.30;;;26.90;79.70;;;;;;5088877;28;20097;-69
2022/07/02 12:11:21;;;;;;;0.60;0.30;;;26.90;77.40;;;;;;5098883;28;20479;-69
2022/07/02 12:13:48;;;;;;;2.42;0.43;;;26.70;78.50;;;;;;5076243;28;20408;-69
2022/07/02 12:16:33;;;;;;;0.93;0.50;;;26.90;79.40;;;;;;5072520;28;20043;-70
2022/07/02 12:19:10;;;;;;;1.85;0.68;;;26.90;77.40;;;;;;5101077;28;20047;-69
2022/07/02 12:21:41;;;;;;;3.47;0.63;;;26.90;79.40;;;;;;5111765;28;20048;-70
2022/07/02 12:24:28;;;;;;;0.55;0.40;;;26.90;78.50;;;;;;5077696;28;20075;-69
2022/07/02 12:27:03;;;;;;;0.82;0.40;;;26.90;78.60;;;;;;5077355;28;20087;-69
2022/07/02 12:32:22;;;;;;;2.03;0.77;;;26.90;76.80;;;;;;5056933;28;20107;-69
2022/07/02 12:34:56;;;;;;;2.13;0.60;;;27.00;78.10;;;;;;5057356;28;20048;-69
2022/07/02 12:37:35;;;;;;;1.38;0.50;;;26.80;78.80;;;;;;5074052;28;20050;-70
2022/07/02 12:40:11;;;;;;;1.70;0.60;;;26.70;80.10;;;;;;5074902;28;20044;-71
2022/07/02 12:42:46;;;;;;;3.15;0.50;;;26.90;80.60;;;;;;5057302;28;20049;-70
2022/07/02 12:45:30;;;;;;;0.80;0.40;;;27.00;80.70;;;;;;5074877;28;20051;-70
2022/07/02 12:48:02;;;;;;;2.25;0.73;;;27.40;80.50;;;;;;5057743;28;20094;-69
2022/07/02 12:50:31;;;;;;;1.73;0.50;;;27.60;79.30;;;;;;5056455;28;20044;-69
2022/07/02 12:53:02;;;;;;;1.38;0.60;;;27.50;76.90;;;;;;5057630;28;20436;-69
2022/07/02 12:55:40;;;;;;;1.25;0.43;;;27.50;78.60;;;;;;5074726;28;20174;-69
2022/07/02 12:58:10;;;;;;;2.08;0.50;;;27.50;78.10;;;;;;5057319;28;20094;-69
2022/07/02 13:00:37;;;;;;;2.28;0.40;;;27.50;78.10;;;;;;5057429;28;20539;-69